Time;durP1;ratioP1;P1;durP2;ratioP2;P2;SDS_P1;SDS_P2;PMS_P1;PMS_P2;Temp;Humidity;BMP_temperature;BMP_pressure;BME280_temperature;BME280_humidity;BME280_pressure;Samples;Min_cycle;Max_cycle;Signal;HPM_P1;HPM_P2
2023/05/20 00:02:24;;;;;;;;;;;;;;;11.32;88.46;96632.72;5115347;28;19924;-59
2023/05/20 00:04:51;;;;;;;;;;;;;;;11.44;87.52;96636.63;5115263;28;19923;-59
2023/05/20 00:07:18;;;;;;;;;;;;;;;11.55;86.72;96634.41;5115169;28;20015;-59
2023/05/20 00:09:45;;;;;;;;;;;;;;;11.66;84.61;96627.88;5115038;28;19985;-60
2023/05/20 00:12:11;;;;;;;;;;;;;;;11.83;83.14;96632.44;5115120;28;19924;-60
2023/05/20 00:14:40;;;;;;;;;;;;;;;11.94;82.43;96630.22;5114991;28;20377;-60
2023/05/20 00:17:07;;;;;;;;;;;;;;;12.09;80.04;96625.25;5114910;28;20018;-60
2023/05/20 00:19:34;;;;;;;;;;;;;;;12.23;80.11;96620.28;5115015;28;19927;-60
2023/05/20 00:22:00;;;;;;;;;;;;;;;12.31;80.11;96611.22;5114901;28;20407;-59
2023/05/20 00:24:27;;;;;;;;;;;;;;;12.35;79.91;96600.53;5114904;27;19946;-60
2023/05/20 00:26:54;;;;;;;;;;;;;;;12.34;78.56;96598.81;5114811;28;19929;-60
2023/05/20 00:29:21;;;;;;;;;;;;;;;12.36;80.24;96602.22;5114404;28;19928;-59
2023/05/20 00:31:50;;;;;;;;;;;;;;;12.41;77.63;96599.41;5114843;28;19924;-60
2023/05/20 00:34:17;;;;;;;;;;;;;;;12.52;78.79;96596.28;5114750;28;19931;-60
2023/05/20 00:36:43;;;;;;;;;;;;;;;12.50;80.46;96596.34;5114779;28;19967;-60
2023/05/20 00:39:10;;;;;;;;;;;;;;;12.50;78.76;96598.97;5114666;28;19970;-59
2023/05/20 00:41:37;;;;;;;;;;;;;;;12.54;79.50;96599.69;5114532;28;19930;-59
2023/05/20 00:44:04;;;;;;;;;;;;;;;12.60;77.54;96604.69;5114428;28;20358;-60
2023/05/20 00:46:31;;;;;;;;;;;;;;;12.73;76.01;96612.84;5114565;28;20014;-59
2023/05/20 00:48:59;;;;;;;;;;;;;;;12.80;76.08;96596.81;5114471;28;20255;-60
2023/05/20 00:51:26;;;;;;;;;;;;;;;12.94;75.62;96597.00;5114436;28;19924;-60
2023/05/20 00:53:53;;;;;;;;;;;;;;;12.98;76.44;96597.75;5114103;28;19977;-60
2023/05/20 00:56:20;;;;;;;;;;;;;;;13.00;78.45;96595.88;5114373;28;19971;-59
2023/05/20 00:58:47;;;;;;;;;;;;;;;12.98;77.30;96581.97;5114673;28;19924;-59
2023/05/20 01:01:14;;;;;;;;;;;;;;;13.02;77.52;96586.16;5114301;28;20341;-60
2023/05/20 01:03:41;;;;;;;;;;;;;;;13.07;75.67;96586.81;5114342;28;19923;-60
2023/05/20 01:06:10;;;;;;;;;;;;;;;13.14;74.60;96582.97;5114197;28;20014;-60
2023/05/20 01:08:37;;;;;;;;;;;;;;;13.24;74.64;96580.72;5114315;28;19928;-60
2023/05/20 01:11:06;;;;;;;;;;;;;;;13.30;74.40;96582.22;5114172;28;19931;-60
2023/05/20 01:13:35;;;;;;;;;;;;;;;13.32;74.93;96580.38;5114432;28;20447;-60
2023/05/20 01:16:03;;;;;;;;;;;;;;;13.35;74.58;96571.47;5114067;28;20300;-60
2023/05/20 01:18:31;;;;;;;;;;;;;;;13.35;73.35;96574.09;5113991;28;19924;-60
2023/05/20 01:21:01;;;;;;;;;;;;;;;13.37;73.21;96574.91;5114071;28;19927;-60
2023/05/20 01:23:33;;;;;;;;;;;;;;;13.41;75.20;96579.06;5113958;28;19923;-59
2023/05/20 01:26:00;;;;;;;;;;;;;;;13.36;75.60;96578.44;5113886;28;20007;-59
2023/05/20 01:28:29;;;;;;;;;;;;;;;13.33;77.94;96582.06;5113855;28;20468;-59
2023/05/20 01:30:57;;;;;;;;;;;;;;;13.33;76.45;96568.09;5113805;28;19923;-60
2023/05/20 01:33:25;;;;;;;;;;;;;;;13.29;78.65;96579.66;5113997;28;19963;-59
2023/05/20 01:35:52;;;;;;;;;;;;;;;13.26;76.72;96559.66;5113763;28;19924;-60
2023/05/20 01:38:19;;;;;;;;;;;;;;;13.26;76.74;96555.25;5113820;28;20356;-60
2023/05/20 01:40:48;;;;;;;;;;;;;;;13.31;75.98;96554.16;5113836;28;19962;-60
2023/05/20 01:43:16;;;;;;;;;;;;;;;13.32;76.63;96547.97;5113774;28;19927;-59
2023/05/20 01:45:43;;;;;;;;;;;;;;;13.33;75.81;96547.91;5113730;28;19924;-59
2023/05/20 01:48:11;;;;;;;;;;;;;;;13.32;75.74;96547.97;5113676;28;20338;-60
2023/05/20 01:50:37;;;;;;;;;;;;;;;13.39;76.39;96546.75;5113871;28;19970;-59
2023/05/20 01:53:07;;;;;;;;;;;;;;;13.40;76.68;96549.31;5113733;28;20476;-59
2023/05/20 01:55:34;;;;;;;;;;;;;;;13.33;77.31;96550.53;5113650;28;20297;-59
2023/05/20 01:58:02;;;;;;;;;;;;;;;13.27;75.71;96549.06;5113678;28;19928;-59
2023/05/20 02:00:29;;;;;;;;;;;;;;;13.27;76.01;96551.69;5113555;28;19923;-59
2023/05/20 02:02:56;;;;;;;;;;;;;;;13.29;76.25;96554.25;5113720;28;19993;-60
2023/05/20 02:05:22;;;;;;;;;;;;;;;13.27;76.72;96566.59;5114676;28;19935;-59
2023/05/20 02:07:50;;;;;;;;;;;;;;;13.25;76.75;96563.22;5117608;28;20025;-59
2023/05/20 02:10:16;;;;;;;;;;;;;;;13.24;77.10;96564.09;5117481;28;20034;-59
2023/05/20 02:12:43;;;;;;;;;;;;;;;13.17;76.36;96571.44;5117577;28;19944;-60
2023/05/20 02:15:11;;;;;;;;;;;;;;;13.13;76.63;96567.28;5117497;28;19924;-60
2023/05/20 02:17:38;;;;;;;;;;;;;;;13.17;76.42;96562.72;5117496;28;20011;-60
2023/05/20 02:20:06;;;;;;;;;;;;;;;13.11;77.13;96567.34;5117470;28;19931;-60
2023/05/20 02:22:33;;;;;;;;;;;;;;;12.95;76.46;96566.38;5117310;28;19931;-60
2023/05/20 02:24:59;;;;;;;;;;;;;;;13.00;77.73;96556.47;5117233;28;20325;-60
2023/05/20 02:27:26;;;;;;;;;;;;;;;13.00;78.05;96564.38;5117296;28;19942;-60
2023/05/20 02:29:53;;;;;;;;;;;;;;;12.99;78.32;96565.28;5116846;28;19923;-59
2023/05/20 02:32:26;;;;;;;;;;;;;;;12.94;78.58;96570.75;5116979;28;20377;-60
2023/05/20 02:34:53;;;;;;;;;;;;;;;12.83;79.14;96555.53;5116964;28;19924;-59
2023/05/20 02:37:20;;;;;;;;;;;;;;;12.77;79.34;96561.91;5116995;28;19924;-60
2023/05/20 02:39:47;;;;;;;;;;;;;;;12.69;79.79;96560.56;5116951;28;20030;-59
2023/05/20 02:42:13;;;;;;;;;;;;;;;12.64;79.91;96560.75;5117062;27;19974;-59
2023/05/20 02:44:40;;;;;;;;;;;;;;;12.60;80.41;96556.59;5116970;28;19992;-60
2023/05/20 02:47:07;;;;;;;;;;;;;;;12.54;80.81;96556.84;5116897;28;19931;-60
2023/05/20 02:49:35;;;;;;;;;;;;;;;12.51;80.86;96552.63;5116723;28;19959;-59
2023/05/20 02:52:01;;;;;;;;;;;;;;;12.52;80.97;96556.94;5116650;28;19974;-60
2023/05/20 02:54:28;;;;;;;;;;;;;;;12.44;81.01;96556.44;5116673;28;20362;-60
2023/05/20 02:56:55;;;;;;;;;;;;;;;12.44;81.26;96561.69;5116821;28;19969;-60
2023/05/20 02:59:21;;;;;;;;;;;;;;;12.43;81.81;96558.19;5116792;28;19924;-60
2023/05/20 03:01:48;;;;;;;;;;;;;;;12.32;81.28;96558.72;5116460;28;19924;-60
2023/05/20 03:04:17;;;;;;;;;;;;;;;12.35;81.45;96560.34;5116716;28;20041;-59
2023/05/20 03:06:46;;;;;;;;;;;;;;;12.32;81.68;96563.09;5116459;28;20082;-59
2023/05/20 03:09:13;;;;;;;;;;;;;;;12.20;81.78;96561.88;5116518;28;19924;-59
2023/05/20 03:11:40;;;;;;;;;;;;;;;12.17;82.03;96567.25;5116361;28;20014;-60
2023/05/20 03:14:07;;;;;;;;;;;;;;;12.12;82.00;96572.69;5116413;28;20299;-60
2023/05/20 03:16:34;;;;;;;;;;;;;;;12.05;82.18;96587.81;5116109;28;20019;-59
2023/05/20 03:19:01;;;;;;;;;;;;;;;12.03;82.16;96592.25;5116217;28;19924;-59
2023/05/20 03:21:28;;;;;;;;;;;;;;;12.01;81.48;96583.59;5116162;28;19924;-59
2023/05/20 03:23:56;;;;;;;;;;;;;;;12.09;81.45;96573.69;5116018;28;20422;-59
2023/05/20 03:26:24;;;;;;;;;;;;;;;12.11;81.89;96581.47;5116110;28;19924;-59
2023/05/20 03:28:51;;;;;;;;;;;;;;;12.15;81.87;96574.31;5115877;28;20271;-60
2023/05/20 03:31:18;;;;;;;;;;;;;;;12.15;81.83;96582.19;5115901;28;19924;-59
2023/05/20 03:33:45;;;;;;;;;;;;;;;12.17;81.58;96585.59;5116050;28;20014;-59
2023/05/20 03:36:12;;;;;;;;;;;;;;;12.17;81.38;96586.47;5115939;28;19971;-59
2023/05/20 03:38:38;;;;;;;;;;;;;;;12.16;81.55;96582.13;5115803;28;20032;-60
2023/05/20 03:41:07;;;;;;;;;;;;;;;12.14;81.64;96581.34;5115774;28;19928;-60
2023/05/20 03:43:33;;;;;;;;;;;;;;;12.13;81.36;96585.72;5115861;28;20014;-60
2023/05/20 03:46:00;;;;;;;;;;;;;;;12.15;81.29;96585.66;5115778;28;19930;-59
2023/05/20 03:48:27;;;;;;;;;;;;;;;12.09;80.91;96571.06;5115588;28;19927;-59
2023/05/20 03:50:54;;;;;;;;;;;;;;;11.94;81.22;96580.41;5115487;28;19924;-59
2023/05/20 03:53:20;;;;;;;;;;;;;;;11.95;81.68;96576.84;5115512;28;19924;-59
2023/05/20 03:55:47;;;;;;;;;;;;;;;11.95;81.66;96581.25;5115480;28;19941;-59
2023/05/20 03:58:16;;;;;;;;;;;;;;;11.90;82.06;96594.56;5115475;27;19927;-59
2023/05/20 04:00:43;;;;;;;;;;;;;;;11.88;81.96;96605.13;5115260;28;19927;-60
2023/05/20 04:03:11;;;;;;;;;;;;;;;11.85;82.34;96607.84;5115265;28;19931;-59
2023/05/20 04:05:38;;;;;;;;;;;;;;;11.92;82.58;96623.34;5115337;28;19924;-59
2023/05/20 04:08:05;;;;;;;;;;;;;;;11.88;83.05;96628.69;5115196;28;19955;-60
2023/05/20 04:10:32;;;;;;;;;;;;;;;11.98;83.52;96617.84;5115029;28;19923;-58
2023/05/20 04:12:58;;;;;;;;;;;;;;;12.05;83.41;96621.03;5115309;28;20361;-60
2023/05/20 04:15:28;;;;;;;;;;;;;;;12.06;83.71;96620.97;5115059;28;20479;-59
2023/05/20 04:17:55;;;;;;;;;;;;;;;12.09;83.63;96612.16;5115195;28;19924;-60
2023/05/20 04:20:23;;;;;;;;;;;;;;;12.11;83.32;96629.53;5115074;28;20014;-59
2023/05/20 04:22:49;;;;;;;;;;;;;;;12.10;83.28;96621.75;5114935;28;19924;-60
2023/05/20 04:25:16;;;;;;;;;;;;;;;12.21;83.43;96621.25;5114875;28;19992;-60
2023/05/20 04:27:43;;;;;;;;;;;;;;;12.28;83.15;96627.09;5114074;28;19931;-59
2023/05/20 04:30:11;;;;;;;;;;;;;;;12.38;83.31;96623.97;5114796;28;19930;-59
2023/05/20 04:32:40;;;;;;;;;;;;;;;12.48;83.54;96620.97;5114797;28;19946;-60
2023/05/20 04:35:10;;;;;;;;;;;;;;;12.55;83.26;96625.00;5114838;28;19950;-60
2023/05/20 04:37:37;;;;;;;;;;;;;;;12.55;82.89;96619.75;5114727;28;19928;-59
2023/05/20 04:40:05;;;;;;;;;;;;;;;12.66;83.81;96623.69;5114630;28;19923;-59
2023/05/20 04:42:32;;;;;;;;;;;;;;;12.78;83.58;96620.50;5114654;28;19950;-60
2023/05/20 04:45:00;;;;;;;;;;;;;;;12.86;82.99;96620.16;5114465;28;20339;-58
2023/05/20 04:47:27;;;;;;;;;;;;;;;12.97;83.35;96627.53;5114601;28;19924;-60
2023/05/20 04:49:56;;;;;;;;;;;;;;;12.97;83.50;96628.38;5114571;28;19924;-59
2023/05/20 04:52:23;;;;;;;;;;;;;;;13.04;83.98;96618.47;5114445;28;20015;-59
2023/05/20 04:54:50;;;;;;;;;;;;;;;13.02;82.75;96617.66;5114379;28;19930;-59
2023/05/20 04:57:19;;;;;;;;;;;;;;;13.08;82.28;96608.66;5114371;28;20336;-60
2023/05/20 04:59:47;;;;;;;;;;;;;;;13.14;82.78;96618.88;5114301;28;19930;-59
2023/05/20 05:02:14;;;;;;;;;;;;;;;13.17;82.96;96612.59;5114213;28;19924;-60
2023/05/20 05:04:41;;;;;;;;;;;;;;;13.28;83.55;96623.47;5114291;28;19969;-59
2023/05/20 05:07:09;;;;;;;;;;;;;;;13.31;83.52;96619.84;5114242;28;19935;-59
2023/05/20 05:09:36;;;;;;;;;;;;;;;13.42;83.42;96624.59;5114194;28;19967;-60
2023/05/20 05:12:03;;;;;;;;;;;;;;;13.57;83.24;96637.00;5114198;28;19993;-59
2023/05/20 05:14:30;;;;;;;;;;;;;;;13.59;83.99;96627.28;5114110;28;19959;-60
2023/05/20 05:16:57;;;;;;;;;;;;;;;13.66;84.33;96633.06;5114130;28;20348;-60
2023/05/20 05:19:24;;;;;;;;;;;;;;;13.74;83.57;96627.44;5113992;28;19987;-59
2023/05/20 05:21:51;;;;;;;;;;;;;;;13.84;83.51;96636.56;5114072;28;20355;-59
2023/05/20 05:24:21;;;;;;;;;;;;;;;13.93;83.53;96643.16;5113935;28;20385;-60
2023/05/20 05:26:47;;;;;;;;;;;;;;;14.03;83.82;96638.31;5113907;28;20463;-60
2023/05/20 05:29:15;;;;;;;;;;;;;;;14.07;83.14;96639.84;5113795;28;19931;-59
2023/05/20 05:31:42;;;;;;;;;;;;;;;14.15;83.46;96648.19;5113568;28;19978;-59
2023/05/20 05:34:09;;;;;;;;;;;;;;;14.28;83.38;96648.44;5113738;28;19930;-60
2023/05/20 05:36:36;;;;;;;;;;;;;;;14.42;82.60;96660.00;5113830;28;19930;-60
2023/05/20 05:39:03;;;;;;;;;;;;;;;14.55;81.95;96651.47;5113881;28;20014;-59
2023/05/20 05:41:32;;;;;;;;;;;;;;;14.70;82.35;96653.31;5117024;28;20270;-60
2023/05/20 05:43:59;;;;;;;;;;;;;;;14.89;81.42;96652.34;5118014;28;19976;-60
2023/05/20 05:46:26;;;;;;;;;;;;;;;15.10;80.37;96657.38;5117999;28;19924;-60
2023/05/20 05:48:53;;;;;;;;;;;;;;;15.29;79.03;96660.69;5117837;27;19928;-60
2023/05/20 05:51:24;;;;;;;;;;;;;;;15.59;79.83;96661.72;5117939;28;19924;-59
2023/05/20 05:53:51;;;;;;;;;;;;;;;16.13;74.05;96663.06;5117750;28;20309;-59
2023/05/20 05:56:18;;;;;;;;;;;;;;;16.88;69.63;96656.00;5117769;28;20014;-59
2023/05/20 05:58:47;;;;;;;;;;;;;;;17.63;71.44;96654.00;5117602;28;19969;-59
2023/05/20 06:01:14;;;;;;;;;;;;;;;18.29;60.97;96657.69;5117782;28;19924;-60
2023/05/20 06:03:41;;;;;;;;;;;;;;;18.53;58.67;96664.94;5117582;27;19924;-59
2023/05/20 06:06:08;;;;;;;;;;;;;;;18.67;58.15;96672.75;5117589;28;19928;-59
2023/05/20 06:08:36;;;;;;;;;;;;;;;19.04;59.57;96660.56;5117778;28;20326;-59
2023/05/20 06:11:03;;;;;;;;;;;;;;;19.54;55.91;96665.03;5117843;28;19992;-59
2023/05/20 06:13:30;;;;;;;;;;;;;;;19.67;55.89;96670.28;5117499;28;20293;-59
2023/05/20 06:15:59;;;;;;;;;;;;;;;19.54;54.96;96668.50;5117367;28;19924;-59
2023/05/20 06:18:25;;;;;;;;;;;;;;;20.01;52.64;96666.97;5117293;28;19969;-59
2023/05/20 06:20:55;;;;;;;;;;;;;;;20.47;54.06;96662.66;5117293;28;20343;-59
2023/05/20 06:23:22;;;;;;;;;;;;;;;20.95;49.49;96650.19;5117272;28;19923;-59
2023/05/20 06:25:50;;;;;;;;;;;;;;;20.91;49.95;96659.34;5117172;28;19969;-60
2023/05/20 06:28:17;;;;;;;;;;;;;;;20.41;50.76;96665.78;5116959;27;19923;-60
2023/05/20 06:30:44;;;;;;;;;;;;;;;19.89;50.20;96669.56;5117097;28;20018;-59
2023/05/20 06:33:13;;;;;;;;;;;;;;;19.65;52.13;96657.13;5117046;28;20296;-59
2023/05/20 06:35:40;;;;;;;;;;;;;;;19.68;54.15;96664.00;5116974;28;20361;-59
2023/05/20 06:38:07;;;;;;;;;;;;;;;19.68;55.78;96658.69;5117062;28;19977;-59
2023/05/20 06:40:34;;;;;;;;;;;;;;;19.57;53.26;96655.03;5116887;28;19924;-60
2023/05/20 06:43:01;;;;;;;;;;;;;;;19.81;52.17;96667.47;5116890;28;19924;-60
2023/05/20 06:45:27;;;;;;;;;;;;;;;19.93;53.26;96662.22;5116909;28;19969;-59
2023/05/20 06:47:54;;;;;;;;;;;;;;;20.05;52.30;96658.66;5116840;28;19969;-60
2023/05/20 06:50:23;;;;;;;;;;;;;;;20.46;49.47;96652.97;5116855;28;19931;-59
2023/05/20 06:52:50;;;;;;;;;;;;;;;20.80;52.44;96650.38;5116189;28;19930;-60
2023/05/20 06:55:17;;;;;;;;;;;;;;;20.93;49.16;96652.97;5116627;28;19924;-60
2023/05/20 06:57:44;;;;;;;;;;;;;;;20.66;50.03;96647.94;5116636;28;19977;-59
2023/05/20 07:00:12;;;;;;;;;;;;;;;20.38;52.56;96652.75;5116594;28;19930;-59
2023/05/20 07:02:39;;;;;;;;;;;;;;;20.20;49.53;96653.19;5116661;28;20391;-59
2023/05/20 07:05:06;;;;;;;;;;;;;;;19.92;53.03;96650.75;5116453;28;19945;-59
2023/05/20 07:07:35;;;;;;;;;;;;;;;19.69;52.90;96649.81;5116369;28;20381;-59
2023/05/20 07:10:04;;;;;;;;;;;;;;;19.63;55.45;96644.94;5116317;28;19924;-59
2023/05/20 07:12:31;;;;;;;;;;;;;;;19.79;56.14;96653.47;5116282;28;19924;-59
2023/05/20 07:14:58;;;;;;;;;;;;;;;19.72;51.97;96656.69;5116275;28;20011;-59
2023/05/20 07:17:25;;;;;;;;;;;;;;;19.62;53.00;96657.34;5116280;28;19924;-59
2023/05/20 07:19:52;;;;;;;;;;;;;;;19.65;54.66;96651.81;5116178;28;19924;-59
2023/05/20 07:22:19;;;;;;;;;;;;;;;19.79;53.62;96649.97;5116088;27;19924;-59
2023/05/20 07:24:48;;;;;;;;;;;;;;;20.05;53.11;96649.88;5116170;28;19923;-59
2023/05/20 07:27:15;;;;;;;;;;;;;;;20.57;53.71;96646.84;5116197;28;19977;-60
2023/05/20 07:29:42;;;;;;;;;;;;;;;20.36;49.58;96657.31;5115983;28;20274;-59
2023/05/20 07:32:09;;;;;;;;;;;;;;;20.08;50.47;96661.09;5115870;28;19971;-60
2023/05/20 07:34:36;;;;;;;;;;;;;;;19.95;51.16;96668.25;5115956;28;19924;-59
2023/05/20 07:37:03;;;;;;;;;;;;;;;19.86;51.38;96666.28;5115789;28;19931;-59
2023/05/20 07:39:30;;;;;;;;;;;;;;;20.02;50.26;96677.47;5115891;28;19923;-59
2023/05/20 07:41:59;;;;;;;;;;;;;;;19.92;48.77;96679.09;5115816;28;20369;-59
2023/05/20 07:44:26;;;;;;;;;;;;;;;19.73;50.56;96684.91;5115676;28;19931;-59
2023/05/20 07:46:52;;;;;;;;;;;;;;;19.60;52.45;96683.16;5115545;28;19931;-59
2023/05/20 07:49:20;;;;;;;;;;;;;;;19.64;51.80;96679.31;5115655;28;19928;-59
2023/05/20 07:51:47;;;;;;;;;;;;;;;19.51;51.51;96670.56;5115579;28;19931;-60
2023/05/20 07:54:14;;;;;;;;;;;;;;;19.31;51.50;96686.97;5115587;28;20384;-60
2023/05/20 07:56:40;;;;;;;;;;;;;;;19.11;52.65;96679.56;5115487;28;19931;-59
2023/05/20 07:59:09;;;;;;;;;;;;;;;19.04;51.79;96684.41;5115414;28;19923;-60
2023/05/20 08:01:35;;;;;;;;;;;;;;;19.00;52.50;96686.44;5115376;28;19928;-59
2023/05/20 08:04:02;;;;;;;;;;;;;;;18.83;52.00;96684.97;5114523;28;19923;-60
2023/05/20 08:06:30;;;;;;;;;;;;;;;18.74;53.49;96694.41;5115232;28;19927;-59
2023/05/20 08:08:58;;;;;;;;;;;;;;;18.64;52.64;96694.19;5115239;28;19930;-60
2023/05/20 08:11:25;;;;;;;;;;;;;;;18.45;53.27;96697.22;5115143;28;19969;-59
2023/05/20 08:13:52;;;;;;;;;;;;;;;18.40;54.59;96705.50;5115255;28;19931;-59
2023/05/20 08:16:21;;;;;;;;;;;;;;;18.43;53.09;96712.38;5115171;28;20434;-59
2023/05/20 08:18:48;;;;;;;;;;;;;;;18.35;55.32;96707.59;5115193;28;19963;-59
2023/05/20 08:21:14;;;;;;;;;;;;;;;18.30;54.78;96702.59;5115342;28;19931;-59
2023/05/20 08:23:41;;;;;;;;;;;;;;;18.56;55.19;96702.66;5114856;28;19924;-59
2023/05/20 08:26:08;;;;;;;;;;;;;;;18.73;53.90;96702.44;5114938;27;20331;-59
2023/05/20 08:28:36;;;;;;;;;;;;;;;18.91;51.53;96695.03;5114601;28;19924;-59
2023/05/20 08:31:03;;;;;;;;;;;;;;;19.14;51.53;96695.25;5114931;28;19924;-59
2023/05/20 08:33:32;;;;;;;;;;;;;;;19.74;52.58;96692.75;5114738;28;20010;-59
2023/05/20 08:35:59;;;;;;;;;;;;;;;20.06;51.96;96681.63;5114709;28;19969;-59
2023/05/20 08:38:26;;;;;;;;;;;;;;;20.44;49.87;96677.00;5114626;28;19931;-60
2023/05/20 08:40:56;;;;;;;;;;;;;;;20.66;50.29;96672.72;5114808;28;19947;-59
2023/05/20 08:43:23;;;;;;;;;;;;;;;20.99;52.20;96672.91;5114746;28;19923;-59
2023/05/20 08:45:51;;;;;;;;;;;;;;;21.07;48.01;96669.66;5114619;28;20368;-60
2023/05/20 08:48:18;;;;;;;;;;;;;;;20.84;47.35;96682.88;5114599;28;19924;-59
2023/05/20 08:50:50;;;;;;;;;;;;;;;20.61;49.22;96690.81;5114422;28;19986;-59
2023/05/20 08:53:17;;;;;;;;;;;;;;;20.36;51.00;96694.50;5114395;28;19923;-59
2023/05/20 08:55:49;;;;;;;;;;;;;;;20.01;49.98;96699.69;5114410;28;19928;-59
2023/05/20 08:58:16;;;;;;;;;;;;;;;19.64;50.58;96691.72;5114351;28;20277;-59
2023/05/20 09:00:43;;;;;;;;;;;;;;;19.27;52.40;96693.41;5114246;28;19923;-59
2023/05/20 09:03:10;;;;;;;;;;;;;;;19.08;53.57;96685.09;5114352;28;20455;-60
2023/05/20 09:05:37;;;;;;;;;;;;;;;18.99;53.52;96689.22;5114228;28;20469;-59
2023/05/20 09:08:09;;;;;;;;;;;;;;;18.82;54.45;96677.97;5114173;28;19924;-59
2023/05/20 09:10:35;;;;;;;;;;;;;;;18.72;55.15;96685.69;5114156;28;19931;-59
2023/05/20 09:13:03;;;;;;;;;;;;;;;18.72;54.25;96679.56;5114160;28;19924;-59
2023/05/20 09:15:31;;;;;;;;;;;;;;;18.53;55.09;96675.53;5113936;28;20018;-59
2023/05/20 09:18:01;;;;;;;;;;;;;;;18.42;54.91;96671.81;5114035;28;19931;-60
2023/05/20 09:20:29;;;;;;;;;;;;;;;18.32;55.57;96668.09;5114062;28;19930;-59
2023/05/20 09:22:59;;;;;;;;;;;;;;;18.38;55.97;96672.13;5113991;28;19924;-59
2023/05/20 09:25:28;;;;;;;;;;;;;;;18.36;55.84;96666.09;5113964;28;19924;-59
2023/05/20 09:27:55;;;;;;;;;;;;;;;18.35;56.54;96670.53;5113846;28;20433;-59
2023/05/20 09:30:23;;;;;;;;;;;;;;;18.29;54.27;96670.94;5113934;28;19928;-60
2023/05/20 09:32:53;;;;;;;;;;;;;;;18.19;56.68;96668.06;5113831;28;20365;-59
2023/05/20 09:35:20;;;;;;;;;;;;;;;18.25;57.28;96665.03;5113855;28;19928;-59
2023/05/20 09:37:48;;;;;;;;;;;;;;;18.29;55.28;96665.63;5113831;28;19931;-60
2023/05/20 09:40:16;;;;;;;;;;;;;;;18.23;55.52;96661.63;5113974;28;20378;-60
2023/05/20 09:42:48;;;;;;;;;;;;;;;18.21;56.50;96654.72;5113742;28;19924;-60
2023/05/20 09:45:15;;;;;;;;;;;;;;;18.16;56.66;96657.69;5113779;28;20011;-60
2023/05/20 09:47:43;;;;;;;;;;;;;;;18.15;56.35;96650.72;5113769;28;19928;-59
2023/05/20 09:50:10;;;;;;;;;;;;;;;18.15;55.72;96642.75;5113718;28;19928;-60
2023/05/20 09:52:38;;;;;;;;;;;;;;;18.13;58.29;96648.16;5113739;28;20374;-60
2023/05/20 09:55:06;;;;;;;;;;;;;;;18.17;57.72;96640.84;5113829;28;19935;-60
2023/05/20 09:57:34;;;;;;;;;;;;;;;18.10;56.48;96637.78;5113663;28;19924;-60
2023/05/20 10:00:03;;;;;;;;;;;;;;;18.04;55.44;96639.00;5113754;28;20365;-60
2023/05/20 10:02:31;;;;;;;;;;;;;;;18.13;56.91;96639.38;5113723;28;20289;-59
2023/05/20 10:04:59;;;;;;;;;;;;;;;18.14;58.83;96639.25;5113770;28;20369;-59
2023/05/20 10:07:41;;;;;;;;;;;;;;;18.24;57.85;96641.28;5113628;28;19927;-59
2023/05/20 10:10:15;;;;;;;;;;;;;;;18.20;59.49;96643.28;5113553;28;19924;-60
2023/05/20 10:12:46;;;;;;;;;;;;;;;18.28;57.52;96645.41;5113613;28;20019;-60
2023/05/20 10:15:18;;;;;;;;;;;;;;;18.38;59.23;96630.59;5113514;28;19976;-60
2023/05/20 10:17:48;;;;;;;;;;;;;;;18.37;56.54;96641.28;5113473;28;19969;-60
2023/05/20 10:20:15;;;;;;;;;;;;;;;18.51;56.17;96640.38;5113521;28;20363;-60
2023/05/20 10:22:44;;;;;;;;;;;;;;;18.61;56.32;96635.25;5113410;28;19969;-60
2023/05/20 10:25:12;;;;;;;;;;;;;;;18.70;52.99;96634.63;5113322;28;19928;-60
2023/05/20 10:27:43;;;;;;;;;;;;;;;18.84;55.41;96636.31;5116294;28;19928;-60
2023/05/20 10:30:17;;;;;;;;;;;;;;;19.00;52.98;96629.94;5117322;28;19998;-60
2023/05/20 10:32:49;;;;;;;;;;;;;;;19.16;52.80;96630.56;5117027;28;19928;-60
2023/05/20 10:35:21;;;;;;;;;;;;;;;19.49;51.56;96624.72;5117113;28;19924;-60
2023/05/20 10:37:48;;;;;;;;;;;;;;;19.72;51.09;96624.84;5117043;28;19923;-60
2023/05/20 10:40:16;;;;;;;;;;;;;;;19.92;50.90;96624.19;5116975;28;19924;-60
2023/05/20 10:42:43;;;;;;;;;;;;;;;20.18;50.97;96624.09;5116946;28;19970;-60
2023/05/20 10:45:11;;;;;;;;;;;;;;;20.31;48.61;96628.44;5116873;28;19928;-60
2023/05/20 10:47:54;;;;;;;;;;;;;;;20.06;48.56;96625.88;5117049;28;19928;-60
2023/05/20 10:50:26;;;;;;;;;;;;;;;19.81;47.57;96632.13;5116836;28;19928;-59
2023/05/20 10:52:53;;;;;;;;;;;;;;;19.66;49.52;96628.81;5116919;28;19924;-60
2023/05/20 10:55:21;;;;;;;;;;;;;;;19.44;50.37;96622.41;5117031;28;20377;-59
2023/05/20 10:57:49;;;;;;;;;;;;;;;19.29;49.35;96625.22;5116643;28;19931;-60
2023/05/20 11:00:17;;;;;;;;;;;;;;;19.25;50.34;96622.91;5116917;28;20288;-59
2023/05/20 11:02:46;;;;;;;;;;;;;;;19.05;49.12;96625.13;5116625;28;19924;-60
2023/05/20 11:05:13;;;;;;;;;;;;;;;19.06;51.87;96625.03;5116489;28;19978;-60
2023/05/20 11:07:41;;;;;;;;;;;;;;;18.95;50.74;96619.66;5116446;28;19927;-59
2023/05/20 11:10:09;;;;;;;;;;;;;;;18.81;51.74;96618.81;5116344;28;19928;-60
2023/05/20 11:12:36;;;;;;;;;;;;;;;18.76;53.12;96607.72;5114202;28;20277;-60
2023/05/20 11:15:03;;;;;;;;;;;;;;;18.55;52.92;96618.00;5116218;28;19947;-60
2023/05/20 11:17:31;;;;;;;;;;;;;;;18.52;54.21;96620.88;5115207;28;19993;-60
2023/05/20 11:20:01;;;;;;;;;;;;;;;18.61;53.62;96622.03;5115466;28;19971;-53
2023/05/20 11:22:33;;;;;;;;;;;;;;;18.55;53.32;96623.31;5116237;28;20002;-52
2023/05/20 11:25:04;;;;;;;;;;;;;;;18.52;54.87;96621.72;5116224;27;19924;-58
2023/05/20 11:27:31;;;;;;;;;;;;;;;18.49;53.96;96621.94;5115444;28;19928;-57
2023/05/20 11:29:58;;;;;;;;;;;;;;;18.58;55.35;96627.53;5115848;28;19928;-56
2023/05/20 11:32:25;;;;;;;;;;;;;;;18.48;54.55;96625.50;5115710;28;19977;-60
2023/05/20 11:34:53;;;;;;;;;;;;;;;18.38;53.84;96619.16;5115218;28;19978;-55
2023/05/20 11:37:23;;;;;;;;;;;;;;;18.44;55.65;96611.66;5114079;28;19927;-52
2023/05/20 11:40:06;;;;;;;;;;;;;;;18.49;54.73;96613.13;5114674;28;20019;-62
2023/05/20 11:42:33;;;;;;;;;;;;;;;18.60;55.43;96612.38;5116018;28;19931;-59
2023/05/20 11:45:00;;;;;;;;;;;;;;;18.67;55.45;96606.53;5115631;28;19924;-53
2023/05/20 11:47:27;;;;;;;;;;;;;;;18.76;55.66;96605.06;5106608;28;20298;-58
2023/05/20 11:49:54;;;;;;;;;;;;;;;18.96;55.75;96600.13;5115558;28;19931;-58
2023/05/20 11:52:22;;;;;;;;;;;;;;;19.00;53.40;96598.13;5115458;28;19977;-54
2023/05/20 11:54:52;;;;;;;;;;;;;;;19.11;52.95;96603.53;5115629;27;19924;-61
2023/05/20 11:57:19;;;;;;;;;;;;;;;19.36;53.07;96593.81;5115386;28;19923;-59
2023/05/20 11:59:46;;;;;;;;;;;;;;;19.60;52.81;96597.41;5114538;28;19923;-54
2023/05/20 12:02:13;;;;;;;;;;;;;;;19.86;51.63;96590.16;5115344;28;19932;-61
2023/05/20 12:04:41;;;;;;;;;;;;;;;19.98;50.75;96579.59;5115491;28;19924;-52
2023/05/20 12:07:09;;;;;;;;;;;;;;;19.93;50.99;96586.06;5115271;28;19924;-50
2023/05/20 12:09:37;;;;;;;;;;;;;;;19.80;49.47;96582.66;5115049;28;19924;-59
2023/05/20 12:12:04;;;;;;;;;;;;;;;19.49;50.83;96577.84;5115246;28;19934;-59
2023/05/20 12:14:32;;;;;;;;;;;;;;;19.44;50.79;96580.81;5115091;28;19924;-62
2023/05/20 12:16:59;;;;;;;;;;;;;;;19.65;52.48;96577.53;5114990;28;19946;-56
2023/05/20 12:19:26;;;;;;;;;;;;;;;20.00;50.34;96575.84;5114775;28;19931;-56
2023/05/20 12:21:53;;;;;;;;;;;;;;;20.23;50.73;96567.13;5114307;28;19930;-61
2023/05/20 12:24:20;;;;;;;;;;;;;;;20.56;49.40;96560.97;5113862;28;19931;-58
2023/05/20 12:26:48;;;;;;;;;;;;;;;20.74;50.12;96559.66;5114547;28;19924;-53
2023/05/20 12:29:15;;;;;;;;;;;;;;;20.74;48.31;96562.31;5114543;28;19924;-54
2023/05/20 12:31:42;;;;;;;;;;;;;;;20.45;48.59;96553.88;5114890;28;20319;-62
2023/05/20 12:34:09;;;;;;;;;;;;;;;20.53;50.92;96552.41;5114616;28;19979;-61
2023/05/20 12:36:38;;;;;;;;;;;;;;;20.60;49.22;96534.16;5114028;27;20205;-56
2023/05/20 12:39:06;;;;;;;;;;;;;;;20.53;49.48;96545.28;5114482;28;19924;-59
2023/05/20 12:41:33;;;;;;;;;;;;;;;20.19;48.60;96542.59;5114623;28;20369;-58
2023/05/20 12:44:02;;;;;;;;;;;;;;;19.95;50.44;96544.34;5114410;28;19930;-56
2023/05/20 12:46:29;;;;;;;;;;;;;;;20.02;50.76;96539.44;5114578;28;19924;-59
2023/05/20 12:48:56;;;;;;;;;;;;;;;19.95;50.68;96528.41;5105780;28;19924;-56
2023/05/20 12:51:24;;;;;;;;;;;;;;;19.95;49.88;96528.41;5114067;28;19931;-60